sensor_id;sensor_type;location;lat;lon;timestamp;P1;durP1;ratioP1;P2;durP2;ratioP2
52210;SDS011;38179;52.756;6.906;2022-11-14T00:01:08;50.55;;;30.00;;
52210;SDS011;38179;52.756;6.906;2022-11-14T00:03:35;45.28;;;28.95;;
52210;SDS011;38179;52.756;6.906;2022-11-14T00:06:03;44.25;;;29.75;;
52210;SDS011;38179;52.756;6.906;2022-11-14T00:08:31;50.15;;;30.45;;
52210;SDS011;38179;52.756;6.906;2022-11-14T00:10:56;45.67;;;31.23;;
52210;SDS011;38179;52.756;6.906;2022-11-14T00:13:22;48.47;;;29.90;;
52210;SDS011;38179;52.756;6.906;2022-11-14T00:15:49;45.97;;;31.30;;
52210;SDS011;38179;52.756;6.906;2022-11-14T00:18:18;51.13;;;31.42;;
52210;SDS011;38179;52.756;6.906;2022-11-14T00:20:48;46.05;;;31.75;;
52210;SDS011;38179;52.756;6.906;2022-11-14T00:23:15;48.33;;;31.80;;
52210;SDS011;38179;52.756;6.906;2022-11-14T00:25:42;49.70;;;32.47;;
52210;SDS011;38179;52.756;6.906;2022-11-14T00:28:08;51.30;;;33.10;;
52210;SDS011;38179;52.756;6.906;2022-11-14T00:30:34;52.83;;;32.80;;
52210;SDS011;38179;52.756;6.906;2022-11-14T00:33:00;54.40;;;35.05;;
52210;SDS011;38179;52.756;6.906;2022-11-14T00:35:26;50.30;;;32.80;;
52210;SDS011;38179;52.756;6.906;2022-11-14T00:37:52;54.28;;;34.08;;
52210;SDS011;38179;52.756;6.906;2022-11-14T00:40:18;51.35;;;34.38;;
52210;SDS011;38179;52.756;6.906;2022-11-14T00:42:44;51.17;;;33.33;;
52210;SDS011;38179;52.756;6.906;2022-11-14T00:45:10;54.35;;;35.05;;
52210;SDS011;38179;52.756;6.906;2022-11-14T00:47:36;54.85;;;36.20;;
52210;SDS011;38179;52.756;6.906;2022-11-14T00:50:02;53.10;;;33.58;;
52210;SDS011;38179;52.756;6.906;2022-11-14T00:52:29;51.65;;;34.17;;
52210;SDS011;38179;52.756;6.906;2022-11-14T00:54:55;51.10;;;33.83;;
52210;SDS011;38179;52.756;6.906;2022-11-14T00:57:21;52.53;;;34.17;;
52210;SDS011;38179;52.756;6.906;2022-11-14T00:59:46;55.00;;;34.30;;
52210;SDS011;38179;52.756;6.906;2022-11-14T01:02:12;50.45;;;33.78;;
52210;SDS011;38179;52.756;6.906;2022-11-14T01:04:38;58.22;;;36.03;;
52210;SDS011;38179;52.756;6.906;2022-11-14T01:07:04;50.83;;;34.70;;
52210;SDS011;38179;52.756;6.906;2022-11-14T01:09:30;51.35;;;35.45;;
52210;SDS011;38179;52.756;6.906;2022-11-14T01:11:56;57.67;;;35.78;;
52210;SDS011;38179;52.756;6.906;2022-11-14T01:14:22;52.70;;;33.85;;
52210;SDS011;38179;52.756;6.906;2022-11-14T01:16:48;58.50;;;35.90;;
52210;SDS011;38179;52.756;6.906;2022-11-14T01:19:13;55.78;;;36.63;;
52210;SDS011;38179;52.756;6.906;2022-11-14T01:21:39;57.78;;;36.00;;
52210;SDS011;38179;52.756;6.906;2022-11-14T01:24:05;56.97;;;36.60;;
52210;SDS011;38179;52.756;6.906;2022-11-14T01:26:31;56.38;;;36.65;;
52210;SDS011;38179;52.756;6.906;2022-11-14T01:28:57;56.83;;;36.50;;
52210;SDS011;38179;52.756;6.906;2022-11-14T01:31:23;58.42;;;38.30;;
52210;SDS011;38179;52.756;6.906;2022-11-14T01:33:51;57.35;;;35.90;;
52210;SDS011;38179;52.756;6.906;2022-11-14T01:36:17;60.83;;;37.38;;
52210;SDS011;38179;52.756;6.906;2022-11-14T01:38:44;63.67;;;38.83;;
52210;SDS011;38179;52.756;6.906;2022-11-14T01:41:14;62.35;;;37.42;;
52210;SDS011;38179;52.756;6.906;2022-11-14T01:43:41;62.85;;;39.55;;
52210;SDS011;38179;52.756;6.906;2022-11-14T01:46:14;58.88;;;36.63;;
52210;SDS011;38179;52.756;6.906;2022-11-14T01:53:47;56.92;;;36.33;;
52210;SDS011;38179;52.756;6.906;2022-11-14T01:56:16;64.32;;;39.05;;
52210;SDS011;38179;52.756;6.906;2022-11-14T01:58:48;56.42;;;36.25;;
52210;SDS011;38179;52.756;6.906;2022-11-14T02:01:18;57.75;;;36.10;;
52210;SDS011;38179;52.756;6.906;2022-11-14T02:03:45;57.15;;;36.00;;
52210;SDS011;38179;52.756;6.906;2022-11-14T02:06:13;62.55;;;37.25;;
52210;SDS011;38179;52.756;6.906;2022-11-14T02:08:41;58.40;;;37.55;;
52210;SDS011;38179;52.756;6.906;2022-11-14T02:11:11;59.83;;;36.60;;
52210;SDS011;38179;52.756;6.906;2022-11-14T02:13:37;56.72;;;38.30;;
52210;SDS011;38179;52.756;6.906;2022-11-14T02:16:03;60.28;;;37.45;;
52210;SDS011;38179;52.756;6.906;2022-11-14T02:18:30;58.42;;;35.88;;
52210;SDS011;38179;52.756;6.906;2022-11-14T02:20:56;56.60;;;36.22;;
52210;SDS011;38179;52.756;6.906;2022-11-14T02:23:25;62.40;;;37.22;;
52210;SDS011;38179;52.756;6.906;2022-11-14T02:25:53;60.13;;;36.95;;
52210;SDS011;38179;52.756;6.906;2022-11-14T02:28:19;62.30;;;37.65;;
52210;SDS011;38179;52.756;6.906;2022-11-14T02:30:45;60.17;;;37.47;;
52210;SDS011;38179;52.756;6.906;2022-11-14T02:33:12;58.22;;;37.05;;
52210;SDS011;38179;52.756;6.906;2022-11-14T02:35:38;58.63;;;36.97;;
52210;SDS011;38179;52.756;6.906;2022-11-14T02:38:05;57.22;;;35.88;;
52210;SDS011;38179;52.756;6.906;2022-11-14T02:40:31;56.88;;;36.80;;
52210;SDS011;38179;52.756;6.906;2022-11-14T02:42:57;58.38;;;36.03;;
52210;SDS011;38179;52.756;6.906;2022-11-14T02:45:23;57.90;;;36.55;;
52210;SDS011;38179;52.756;6.906;2022-11-14T02:47:49;59.58;;;37.15;;
52210;SDS011;38179;52.756;6.906;2022-11-14T02:50:15;58.80;;;37.60;;
52210;SDS011;38179;52.756;6.906;2022-11-14T02:52:41;57.88;;;37.55;;
52210;SDS011;38179;52.756;6.906;2022-11-14T02:55:07;59.53;;;37.90;;
52210;SDS011;38179;52.756;6.906;2022-11-14T02:57:33;60.88;;;38.67;;
52210;SDS011;38179;52.756;6.906;2022-11-14T02:59:59;60.10;;;38.20;;
52210;SDS011;38179;52.756;6.906;2022-11-14T03:02:25;60.45;;;38.10;;
52210;SDS011;38179;52.756;6.906;2022-11-14T03:04:51;60.58;;;38.38;;
52210;SDS011;38179;52.756;6.906;2022-11-14T03:07:17;60.75;;;37.25;;
52210;SDS011;38179;52.756;6.906;2022-11-14T03:09:42;57.53;;;36.72;;
52210;SDS011;38179;52.756;6.906;2022-11-14T03:12:08;58.00;;;37.15;;
52210;SDS011;38179;52.756;6.906;2022-11-14T03:14:34;59.70;;;37.33;;
52210;SDS011;38179;52.756;6.906;2022-11-14T03:17:00;59.53;;;35.72;;
52210;SDS011;38179;52.756;6.906;2022-11-14T03:19:26;61.38;;;39.63;;
52210;SDS011;38179;52.756;6.906;2022-11-14T03:21:52;57.03;;;37.70;;
52210;SDS011;38179;52.756;6.906;2022-11-14T03:24:18;60.63;;;38.83;;
52210;SDS011;38179;52.756;6.906;2022-11-14T03:26:44;52.15;;;35.75;;
52210;SDS011;38179;52.756;6.906;2022-11-14T03:29:10;56.90;;;37.00;;
52210;SDS011;38179;52.756;6.906;2022-11-14T03:31:36;60.35;;;37.47;;
52210;SDS011;38179;52.756;6.906;2022-11-14T03:34:02;58.53;;;38.03;;
52210;SDS011;38179;52.756;6.906;2022-11-14T03:36:28;58.35;;;37.28;;
52210;SDS011;38179;52.756;6.906;2022-11-14T03:38:54;64.20;;;38.70;;
52210;SDS011;38179;52.756;6.906;2022-11-14T03:41:19;56.67;;;37.70;;
52210;SDS011;38179;52.756;6.906;2022-11-14T03:43:45;58.13;;;38.15;;
52210;SDS011;38179;52.756;6.906;2022-11-14T03:46:11;57.92;;;35.88;;
52210;SDS011;38179;52.756;6.906;2022-11-14T03:48:37;57.78;;;37.15;;
52210;SDS011;38179;52.756;6.906;2022-11-14T03:51:03;58.92;;;38.20;;
52210;SDS011;38179;52.756;6.906;2022-11-14T03:53:29;58.47;;;37.72;;
52210;SDS011;38179;52.756;6.906;2022-11-14T03:55:55;58.28;;;37.55;;
52210;SDS011;38179;52.756;6.906;2022-11-14T03:58:21;59.63;;;38.15;;
52210;SDS011;38179;52.756;6.906;2022-11-14T04:00:47;58.17;;;37.67;;
52210;SDS011;38179;52.756;6.906;2022-11-14T04:03:12;55.55;;;37.97;;
52210;SDS011;38179;52.756;6.906;2022-11-14T04:05:38;54.20;;;35.60;;
52210;SDS011;38179;52.756;6.906;2022-11-14T04:08:07;57.22;;;38.10;;
52210;SDS011;38179;52.756;6.906;2022-11-14T04:10:33;52.97;;;36.35;;
52210;SDS011;38179;52.756;6.906;2022-11-14T04:12:58;60.55;;;36.95;;
52210;SDS011;38179;52.756;6.906;2022-11-14T04:15:24;57.08;;;37.35;;
52210;SDS011;38179;52.756;6.906;2022-11-14T04:17:50;57.75;;;36.67;;
52210;SDS011;38179;52.756;6.906;2022-11-14T04:20:16;57.08;;;36.00;;
52210;SDS011;38179;52.756;6.906;2022-11-14T04:22:42;54.58;;;36.75;;
52210;SDS011;38179;52.756;6.906;2022-11-14T04:25:08;55.78;;;37.03;;
52210;SDS011;38179;52.756;6.906;2022-11-14T04:27:34;58.05;;;37.67;;
52210;SDS011;38179;52.756;6.906;2022-11-14T04:30:00;55.78;;;36.15;;
52210;SDS011;38179;52.756;6.906;2022-11-14T04:32:26;55.30;;;37.38;;
52210;SDS011;38179;52.756;6.906;2022-11-14T04:34:52;56.50;;;36.28;;
52210;SDS011;38179;52.756;6.906;2022-11-14T04:37:18;54.25;;;36.03;;
52210;SDS011;38179;52.756;6.906;2022-11-14T04:39:44;59.38;;;38.25;;
52210;SDS011;38179;52.756;6.906;2022-11-14T04:42:09;58.50;;;38.28;;
52210;SDS011;38179;52.756;6.906;2022-11-14T04:44:35;55.13;;;38.08;;
52210;SDS011;38179;52.756;6.906;2022-11-14T04:47:01;60.25;;;38.47;;
52210;SDS011;38179;52.756;6.906;2022-11-14T04:49:27;54.45;;;36.33;;
52210;SDS011;38179;52.756;6.906;2022-11-14T04:51:53;56.42;;;36.55;;
52210;SDS011;38179;52.756;6.906;2022-11-14T04:54:19;59.17;;;37.95;;
52210;SDS011;38179;52.756;6.906;2022-11-14T04:56:45;57.83;;;36.55;;
52210;SDS011;38179;52.756;6.906;2022-11-14T04:59:11;60.60;;;38.22;;
52210;SDS011;38179;52.756;6.906;2022-11-14T05:01:36;62.58;;;36.83;;
52210;SDS011;38179;52.756;6.906;2022-11-14T05:04:02;58.58;;;37.47;;
52210;SDS011;38179;52.756;6.906;2022-11-14T05:06:28;60.65;;;37.90;;
52210;SDS011;38179;52.756;6.906;2022-11-14T05:08:54;60.45;;;37.33;;
52210;SDS011;38179;52.756;6.906;2022-11-14T05:11:20;60.28;;;38.33;;
52210;SDS011;38179;52.756;6.906;2022-11-14T05:13:46;62.20;;;39.65;;
52210;SDS011;38179;52.756;6.906;2022-11-14T05:16:12;62.95;;;38.00;;
52210;SDS011;38179;52.756;6.906;2022-11-14T05:18:38;59.38;;;36.83;;
52210;SDS011;38179;52.756;6.906;2022-11-14T05:21:04;60.80;;;37.47;;
52210;SDS011;38179;52.756;6.906;2022-11-14T05:23:30;60.00;;;37.70;;
52210;SDS011;38179;52.756;6.906;2022-11-14T05:28:26;61.05;;;39.00;;
52210;SDS011;38179;52.756;6.906;2022-11-14T05:30:58;65.38;;;38.67;;
52210;SDS011;38179;52.756;6.906;2022-11-14T05:33:25;61.00;;;37.38;;
52210;SDS011;38179;52.756;6.906;2022-11-14T05:35:51;59.67;;;37.35;;
52210;SDS011;38179;52.756;6.906;2022-11-14T05:38:17;58.20;;;37.70;;
52210;SDS011;38179;52.756;6.906;2022-11-14T05:40:43;60.67;;;38.35;;
52210;SDS011;38179;52.756;6.906;2022-11-14T05:43:09;59.30;;;35.38;;
52210;SDS011;38179;52.756;6.906;2022-11-14T05:45:35;60.67;;;36.50;;
52210;SDS011;38179;52.756;6.906;2022-11-14T05:48:01;64.13;;;38.25;;
52210;SDS011;38179;52.756;6.906;2022-11-14T05:50:27;61.50;;;36.47;;
52210;SDS011;38179;52.756;6.906;2022-11-14T05:52:54;62.92;;;38.28;;
52210;SDS011;38179;52.756;6.906;2022-11-14T05:55:20;57.95;;;36.33;;
52210;SDS011;38179;52.756;6.906;2022-11-14T05:57:46;62.92;;;37.97;;
52210;SDS011;38179;52.756;6.906;2022-11-14T06:00:12;60.67;;;36.25;;
52210;SDS011;38179;52.756;6.906;2022-11-14T06:02:39;63.05;;;37.35;;
52210;SDS011;38179;52.756;6.906;2022-11-14T06:05:05;59.08;;;36.58;;
52210;SDS011;38179;52.756;6.906;2022-11-14T06:07:31;62.55;;;38.10;;
52210;SDS011;38179;52.756;6.906;2022-11-14T06:09:57;65.50;;;37.55;;
52210;SDS011;38179;52.756;6.906;2022-11-14T06:12:23;61.75;;;36.70;;
52210;SDS011;38179;52.756;6.906;2022-11-14T06:14:49;66.43;;;38.47;;
52210;SDS011;38179;52.756;6.906;2022-11-14T06:17:14;60.58;;;36.15;;
52210;SDS011;38179;52.756;6.906;2022-11-14T06:19:40;61.45;;;37.58;;
52210;SDS011;38179;52.756;6.906;2022-11-14T06:22:07;60.58;;;36.35;;
52210;SDS011;38179;52.756;6.906;2022-11-14T06:24:32;67.68;;;38.30;;
52210;SDS011;38179;52.756;6.906;2022-11-14T06:26:58;64.28;;;37.50;;
52210;SDS011;38179;52.756;6.906;2022-11-14T06:29:24;61.58;;;38.67;;
52210;SDS011;38179;52.756;6.906;2022-11-14T06:31:50;64.88;;;39.25;;
52210;SDS011;38179;52.756;6.906;2022-11-14T06:34:16;66.25;;;38.60;;
52210;SDS011;38179;52.756;6.906;2022-11-14T06:36:42;63.50;;;37.20;;
52210;SDS011;38179;52.756;6.906;2022-11-14T06:39:08;68.35;;;39.03;;
52210;SDS011;38179;52.756;6.906;2022-11-14T06:41:34;62.78;;;37.05;;
52210;SDS011;38179;52.756;6.906;2022-11-14T06:44:00;69.47;;;40.42;;
52210;SDS011;38179;52.756;6.906;2022-11-14T06:46:26;66.90;;;39.47;;
52210;SDS011;38179;52.756;6.906;2022-11-14T06:48:51;65.18;;;39.10;;
52210;SDS011;38179;52.756;6.906;2022-11-14T06:51:17;66.30;;;39.53;;
52210;SDS011;38179;52.756;6.906;2022-11-14T06:53:44;63.65;;;37.95;;
52210;SDS011;38179;52.756;6.906;2022-11-14T06:56:14;69.78;;;40.40;;
52210;SDS011;38179;52.756;6.906;2022-11-14T06:58:42;69.25;;;40.13;;
52210;SDS011;38179;52.756;6.906;2022-11-14T07:01:14;64.15;;;38.47;;
52210;SDS011;38179;52.756;6.906;2022-11-14T07:03:44;66.82;;;38.67;;
52210;SDS011;38179;52.756;6.906;2022-11-14T07:06:11;66.70;;;39.00;;
52210;SDS011;38179;52.756;6.906;2022-11-14T07:08:42;66.90;;;38.55;;
52210;SDS011;38179;52.756;6.906;2022-11-14T07:11:09;67.07;;;38.70;;
52210;SDS011;38179;52.756;6.906;2022-11-14T07:13:36;64.30;;;37.15;;
52210;SDS011;38179;52.756;6.906;2022-11-14T07:16:03;68.28;;;40.80;;
52210;SDS011;38179;52.756;6.906;2022-11-14T07:18:30;68.88;;;40.08;;
52210;SDS011;38179;52.756;6.906;2022-11-14T07:20:58;69.15;;;39.55;;
52210;SDS011;38179;52.756;6.906;2022-11-14T07:23:28;64.35;;;38.40;;
52210;SDS011;38179;52.756;6.906;2022-11-14T07:25:58;72.85;;;40.88;;
52210;SDS011;38179;52.756;6.906;2022-11-14T07:28:31;66.45;;;40.20;;
52210;SDS011;38179;52.756;6.906;2022-11-14T07:30:58;67.28;;;39.33;;
52210;SDS011;38179;52.756;6.906;2022-11-14T07:33:26;64.50;;;39.05;;
52210;SDS011;38179;52.756;6.906;2022-11-14T07:35:53;68.60;;;40.42;;
52210;SDS011;38179;52.756;6.906;2022-11-14T07:38:19;65.20;;;37.65;;
52210;SDS011;38179;52.756;6.906;2022-11-14T07:40:52;66.32;;;39.85;;
52210;SDS011;38179;52.756;6.906;2022-11-14T07:43:19;63.45;;;38.38;;
52210;SDS011;38179;52.756;6.906;2022-11-14T07:45:45;71.75;;;40.25;;
52210;SDS011;38179;52.756;6.906;2022-11-14T07:48:11;66.85;;;38.88;;
52210;SDS011;38179;52.756;6.906;2022-11-14T07:50:37;67.10;;;38.25;;
52210;SDS011;38179;52.756;6.906;2022-11-14T07:53:03;64.68;;;39.35;;
52210;SDS011;38179;52.756;6.906;2022-11-14T07:55:29;65.15;;;38.20;;
52210;SDS011;38179;52.756;6.906;2022-11-14T07:57:57;65.90;;;38.95;;
52210;SDS011;38179;52.756;6.906;2022-11-14T08:00:24;65.43;;;37.75;;
52210;SDS011;38179;52.756;6.906;2022-11-14T08:02:50;63.88;;;37.72;;
52210;SDS011;38179;52.756;6.906;2022-11-14T08:05:16;64.68;;;38.42;;
52210;SDS011;38179;52.756;6.906;2022-11-14T08:07:42;64.03;;;37.45;;
52210;SDS011;38179;52.756;6.906;2022-11-14T08:10:08;60.38;;;36.67;;
52210;SDS011;38179;52.756;6.906;2022-11-14T08:12:36;59.65;;;36.78;;
52210;SDS011;38179;52.756;6.906;2022-11-14T08:15:06;61.13;;;37.05;;
52210;SDS011;38179;52.756;6.906;2022-11-14T08:17:33;64.40;;;36.85;;
52210;SDS011;38179;52.756;6.906;2022-11-14T08:19:59;64.95;;;37.88;;
52210;SDS011;38179;52.756;6.906;2022-11-14T08:22:25;61.67;;;36.58;;
52210;SDS011;38179;52.756;6.906;2022-11-14T08:24:51;69.90;;;37.22;;
52210;SDS011;38179;52.756;6.906;2022-11-14T08:27:17;64.30;;;35.35;;
52210;SDS011;38179;52.756;6.906;2022-11-14T08:29:43;63.50;;;36.47;;
52210;SDS011;38179;52.756;6.906;2022-11-14T08:32:11;63.38;;;37.55;;
52210;SDS011;38179;52.756;6.906;2022-11-14T08:34:37;62.85;;;37.65;;
52210;SDS011;38179;52.756;6.906;2022-11-14T08:37:04;80.70;;;37.75;;
52210;SDS011;38179;52.756;6.906;2022-11-14T08:39:30;65.55;;;37.63;;
52210;SDS011;38179;52.756;6.906;2022-11-14T08:41:56;63.13;;;37.28;;
52210;SDS011;38179;52.756;6.906;2022-11-14T08:44:22;64.95;;;36.97;;
52210;SDS011;38179;52.756;6.906;2022-11-14T08:46:48;60.38;;;36.47;;
52210;SDS011;38179;52.756;6.906;2022-11-14T08:49:14;62.35;;;36.08;;
52210;SDS011;38179;52.756;6.906;2022-11-14T08:51:40;70.22;;;38.40;;
52210;SDS011;38179;52.756;6.906;2022-11-14T08:54:06;74.10;;;37.80;;
52210;SDS011;38179;52.756;6.906;2022-11-14T08:56:32;75.13;;;37.80;;
52210;SDS011;38179;52.756;6.906;2022-11-14T08:58:58;69.72;;;37.72;;
52210;SDS011;38179;52.756;6.906;2022-11-14T09:01:26;66.17;;;37.13;;
52210;SDS011;38179;52.756;6.906;2022-11-14T09:03:52;64.55;;;38.00;;
52210;SDS011;38179;52.756;6.906;2022-11-14T09:06:18;68.70;;;36.97;;
52210;SDS011;38179;52.756;6.906;2022-11-14T09:08:44;65.10;;;37.90;;
52210;SDS011;38179;52.756;6.906;2022-11-14T09:11:10;59.90;;;36.30;;
52210;SDS011;38179;52.756;6.906;2022-11-14T09:13:35;62.80;;;37.78;;
52210;SDS011;38179;52.756;6.906;2022-11-14T09:16:01;60.50;;;36.35;;
52210;SDS011;38179;52.756;6.906;2022-11-14T09:18:28;56.83;;;35.70;;
52210;SDS011;38179;52.756;6.906;2022-11-14T09:20:58;59.58;;;35.42;;
52210;SDS011;38179;52.756;6.906;2022-11-14T09:23:28;58.45;;;37.53;;
52210;SDS011;38179;52.756;6.906;2022-11-14T09:25:54;61.13;;;37.15;;
52210;SDS011;38179;52.756;6.906;2022-11-14T09:28:21;57.33;;;35.38;;
52210;SDS011;38179;52.756;6.906;2022-11-14T09:30:48;53.08;;;34.78;;
52210;SDS011;38179;52.756;6.906;2022-11-14T09:33:14;56.15;;;36.20;;
52210;SDS011;38179;52.756;6.906;2022-11-14T09:35:40;54.47;;;35.53;;
52210;SDS011;38179;52.756;6.906;2022-11-14T09:38:07;53.22;;;34.80;;
52210;SDS011;38179;52.756;6.906;2022-11-14T09:46:09;52.97;;;35.58;;
52210;SDS011;38179;52.756;6.906;2022-11-14T09:48:42;54.30;;;34.78;;
52210;SDS011;38179;52.756;6.906;2022-11-14T09:51:09;56.80;;;34.88;;
52210;SDS011;38179;52.756;6.906;2022-11-14T09:53:42;52.55;;;33.83;;
52210;SDS011;38179;52.756;6.906;2022-11-14T09:56:20;52.60;;;33.00;;
52210;SDS011;38179;52.756;6.906;2022-11-14T09:58:51;52.33;;;33.72;;
52210;SDS011;38179;52.756;6.906;2022-11-14T10:07:43;48.67;;;32.92;;
52210;SDS011;38179;52.756;6.906;2022-11-14T10:13:15;47.67;;;32.28;;
52210;SDS011;38179;52.756;6.906;2022-11-14T10:15:53;49.72;;;33.33;;
52210;SDS011;38179;52.756;6.906;2022-11-14T10:21:48;48.60;;;32.50;;
52210;SDS011;38179;52.756;6.906;2022-11-14T10:27:27;48.88;;;31.75;;
52210;SDS011;38179;52.756;6.906;2022-11-14T10:30:07;47.78;;;32.00;;
52210;SDS011;38179;52.756;6.906;2022-11-14T10:32:46;49.25;;;31.67;;
52210;SDS011;38179;52.756;6.906;2022-11-14T10:40:37;45.80;;;31.35;;
52210;SDS011;38179;52.756;6.906;2022-11-14T10:43:10;44.95;;;30.85;;
52210;SDS011;38179;52.756;6.906;2022-11-14T10:45:52;42.00;;;30.63;;
52210;SDS011;38179;52.756;6.906;2022-11-14T10:48:33;45.05;;;30.90;;
52210;SDS011;38179;52.756;6.906;2022-11-14T10:51:06;43.28;;;29.90;;
52210;SDS011;38179;52.756;6.906;2022-11-14T10:53:53;43.67;;;31.10;;
52210;SDS011;38179;52.756;6.906;2022-11-14T10:56:23;43.58;;;30.70;;
52210;SDS011;38179;52.756;6.906;2022-11-14T10:58:49;42.50;;;30.33;;
52210;SDS011;38179;52.756;6.906;2022-11-14T11:01:31;44.17;;;29.80;;
52210;SDS011;38179;52.756;6.906;2022-11-14T11:06:52;41.17;;;28.20;;
52210;SDS011;38179;52.756;6.906;2022-11-14T11:10:01;40.22;;;27.90;;
52210;SDS011;38179;52.756;6.906;2022-11-14T11:12:47;41.35;;;28.38;;
52210;SDS011;38179;52.756;6.906;2022-11-14T11:15:17;42.08;;;29.52;;
52210;SDS011;38179;52.756;6.906;2022-11-14T11:20:28;41.80;;;28.08;;
52210;SDS011;38179;52.756;6.906;2022-11-14T11:23:27;42.75;;;28.85;;
52210;SDS011;38179;52.756;6.906;2022-11-14T11:26:00;43.20;;;28.40;;
52210;SDS011;38179;52.756;6.906;2022-11-14T11:28:31;39.88;;;29.50;;
52210;SDS011;38179;52.756;6.906;2022-11-14T11:31:06;42.65;;;28.75;;
52210;SDS011;38179;52.756;6.906;2022-11-14T11:33:37;41.65;;;28.80;;
52210;SDS011;38179;52.756;6.906;2022-11-14T11:36:05;38.13;;;27.77;;
52210;SDS011;38179;52.756;6.906;2022-11-14T11:38:37;42.10;;;29.63;;
52210;SDS011;38179;52.756;6.906;2022-11-14T11:44:00;40.60;;;28.17;;
52210;SDS011;38179;52.756;6.906;2022-11-14T11:46:56;42.40;;;29.20;;
52210;SDS011;38179;52.756;6.906;2022-11-14T11:52:01;36.20;;;26.88;;
52210;SDS011;38179;52.756;6.906;2022-11-14T11:58:12;37.72;;;26.23;;
52210;SDS011;38179;52.756;6.906;2022-11-14T12:00:46;43.60;;;27.35;;
52210;SDS011;38179;52.756;6.906;2022-11-14T12:03:21;39.20;;;27.17;;
52210;SDS011;38179;52.756;6.906;2022-11-14T12:11:26;34.35;;;27.23;;
52210;SDS011;38179;52.756;6.906;2022-11-14T12:30:08;31.92;;;25.52;;
52210;SDS011;38179;52.756;6.906;2022-11-14T12:32:44;32.35;;;25.30;;
52210;SDS011;38179;52.756;6.906;2022-11-14T12:35:26;31.55;;;25.23;;
52210;SDS011;38179;52.756;6.906;2022-11-14T12:37:56;29.45;;;23.58;;
52210;SDS011;38179;52.756;6.906;2022-11-14T12:42:54;30.65;;;24.52;;
52210;SDS011;38179;52.756;6.906;2022-11-14T12:46:07;31.00;;;25.38;;
52210;SDS011;38179;52.756;6.906;2022-11-14T12:50:57;31.05;;;24.50;;
52210;SDS011;38179;52.756;6.906;2022-11-14T13:09:32;30.42;;;24.63;;
52210;SDS011;38179;52.756;6.906;2022-11-14T13:12:04;30.48;;;24.95;;
52210;SDS011;38179;52.756;6.906;2022-11-14T13:16:20;30.85;;;24.70;;
52210;SDS011;38179;52.756;6.906;2022-11-14T13:18:30;29.20;;;24.48;;
52210;SDS011;38179;52.756;6.906;2022-11-14T13:24:10;29.50;;;23.88;;
52210;SDS011;38179;52.756;6.906;2022-11-14T13:26:39;29.23;;;24.57;;
52210;SDS011;38179;52.756;6.906;2022-11-14T13:32:03;29.27;;;23.38;;
52210;SDS011;38179;52.756;6.906;2022-11-14T13:51:51;27.38;;;22.75;;
52210;SDS011;38179;52.756;6.906;2022-11-14T13:54:18;26.63;;;23.05;;
52210;SDS011;38179;52.756;6.906;2022-11-14T14:07:51;25.45;;;22.60;;
52210;SDS011;38179;52.756;6.906;2022-11-14T14:18:42;32.75;;;23.17;;
52210;SDS011;38179;52.756;6.906;2022-11-14T14:21:30;26.17;;;23.10;;
52210;SDS011;38179;52.756;6.906;2022-11-14T14:27:29;25.33;;;21.88;;
52210;SDS011;38179;52.756;6.906;2022-11-14T14:30:11;25.73;;;22.33;;
52210;SDS011;38179;52.756;6.906;2022-11-14T14:32:39;26.73;;;23.13;;
52210;SDS011;38179;52.756;6.906;2022-11-14T14:35:22;25.35;;;22.50;;
52210;SDS011;38179;52.756;6.906;2022-11-14T14:37:50;25.67;;;21.73;;
52210;SDS011;38179;52.756;6.906;2022-11-14T14:40:31;26.15;;;22.35;;
52210;SDS011;38179;52.756;6.906;2022-11-14T14:43:04;26.02;;;21.60;;
52210;SDS011;38179;52.756;6.906;2022-11-14T14:45:33;25.27;;;22.17;;
52210;SDS011;38179;52.756;6.906;2022-11-14T14:48:14;24.83;;;21.55;;
52210;SDS011;38179;52.756;6.906;2022-11-14T14:50:55;24.85;;;21.83;;
52210;SDS011;38179;52.756;6.906;2022-11-14T14:53:25;28.63;;;22.85;;
52210;SDS011;38179;52.756;6.906;2022-11-14T15:00:56;26.60;;;23.20;;
52210;SDS011;38179;52.756;6.906;2022-11-14T15:03:23;26.73;;;23.17;;
52210;SDS011;38179;52.756;6.906;2022-11-14T15:06:00;29.20;;;23.05;;
52210;SDS011;38179;52.756;6.906;2022-11-14T15:08:28;25.50;;;22.73;;
52210;SDS011;38179;52.756;6.906;2022-11-14T15:10:57;26.55;;;22.92;;
52210;SDS011;38179;52.756;6.906;2022-11-14T15:13:25;29.60;;;23.77;;
52210;SDS011;38179;52.756;6.906;2022-11-14T15:15:53;24.05;;;21.20;;
52210;SDS011;38179;52.756;6.906;2022-11-14T15:18:26;26.30;;;21.90;;
52210;SDS011;38179;52.756;6.906;2022-11-14T15:21:07;27.13;;;23.20;;
52210;SDS011;38179;52.756;6.906;2022-11-14T15:23:38;33.70;;;23.25;;
52210;SDS011;38179;52.756;6.906;2022-11-14T15:26:10;27.20;;;22.85;;
52210;SDS011;38179;52.756;6.906;2022-11-14T15:28:38;26.65;;;22.65;;
52210;SDS011;38179;52.756;6.906;2022-11-14T15:31:04;27.38;;;23.10;;
52210;SDS011;38179;52.756;6.906;2022-11-14T15:33:34;28.80;;;22.65;;
52210;SDS011;38179;52.756;6.906;2022-11-14T15:38:33;24.50;;;21.58;;
52210;SDS011;38179;52.756;6.906;2022-11-14T15:41:09;28.17;;;23.73;;
52210;SDS011;38179;52.756;6.906;2022-11-14T15:49:06;27.17;;;22.90;;
52210;SDS011;38179;52.756;6.906;2022-11-14T15:54:21;28.00;;;23.27;;
52210;SDS011;38179;52.756;6.906;2022-11-14T15:56:52;27.10;;;22.70;;
52210;SDS011;38179;52.756;6.906;2022-11-14T15:59:19;27.50;;;22.85;;
52210;SDS011;38179;52.756;6.906;2022-11-14T16:01:46;26.48;;;22.35;;
52210;SDS011;38179;52.756;6.906;2022-11-14T16:04:18;26.55;;;21.50;;
52210;SDS011;38179;52.756;6.906;2022-11-14T16:06:49;33.03;;;24.27;;
52210;SDS011;38179;52.756;6.906;2022-11-14T16:09:18;29.25;;;23.23;;
52210;SDS011;38179;52.756;6.906;2022-11-14T16:11:45;27.70;;;23.25;;
52210;SDS011;38179;52.756;6.906;2022-11-14T16:14:11;27.15;;;22.27;;
52210;SDS011;38179;52.756;6.906;2022-11-14T16:16:37;29.42;;;23.33;;
52210;SDS011;38179;52.756;6.906;2022-11-14T16:19:04;30.17;;;23.67;;
52210;SDS011;38179;52.756;6.906;2022-11-14T16:21:31;31.30;;;22.85;;
52210;SDS011;38179;52.756;6.906;2022-11-14T16:23:57;27.95;;;22.73;;
52210;SDS011;38179;52.756;6.906;2022-11-14T16:26:23;28.40;;;23.42;;
52210;SDS011;38179;52.756;6.906;2022-11-14T16:28:51;29.20;;;24.90;;
52210;SDS011;38179;52.756;6.906;2022-11-14T16:31:17;28.13;;;23.25;;
52210;SDS011;38179;52.756;6.906;2022-11-14T16:33:44;27.75;;;23.02;;
52210;SDS011;38179;52.756;6.906;2022-11-14T16:36:10;25.38;;;21.48;;
52210;SDS011;38179;52.756;6.906;2022-11-14T16:38:37;26.65;;;22.20;;
52210;SDS011;38179;52.756;6.906;2022-11-14T16:41:07;27.52;;;22.13;;
52210;SDS011;38179;52.756;6.906;2022-11-14T16:43:33;28.40;;;24.13;;
52210;SDS011;38179;52.756;6.906;2022-11-14T16:46:03;29.00;;;22.33;;
52210;SDS011;38179;52.756;6.906;2022-11-14T16:48:30;25.10;;;21.90;;
52210;SDS011;38179;52.756;6.906;2022-11-14T16:50:59;25.95;;;22.48;;
52210;SDS011;38179;52.756;6.906;2022-11-14T16:53:28;26.35;;;21.90;;
52210;SDS011;38179;52.756;6.906;2022-11-14T16:55:55;26.33;;;22.92;;
52210;SDS011;38179;52.756;6.906;2022-11-14T16:58:21;25.85;;;21.80;;
52210;SDS011;38179;52.756;6.906;2022-11-14T17:00:47;25.40;;;21.95;;
52210;SDS011;38179;52.756;6.906;2022-11-14T17:03:13;26.02;;;21.50;;